createdAt,value
2022-09-28T00:03:07.801Z,1.20
2022-09-28T00:08:10.493Z,1.13
2022-09-28T00:13:13.154Z,0.50
2022-09-28T00:18:17.105Z,0.83
2022-09-28T00:23:19.739Z,2.53
2022-09-28T00:28:22.394Z,0.50
2022-09-28T00:33:26.569Z,0.80
2022-09-28T00:38:30.278Z,0.80
2022-09-28T00:43:32.933Z,0.73
2022-09-28T00:48:40.923Z,1.10
2022-09-28T00:53:45.349Z,1.23
2022-09-28T00:58:51.241Z,0.90
2022-09-28T01:03:55.331Z,0.60
2022-09-28T01:09:02.545Z,1.10
2022-09-28T01:14:08.967Z,0.80
2022-09-28T01:19:31.492Z,0.70
2022-09-28T01:24:42.895Z,0.70
2022-09-28T01:29:52.690Z,0.70
2022-09-28T01:34:59.583Z,1.43
2022-09-28T01:40:03.982Z,0.70
2022-09-28T01:45:13.221Z,0.60
2022-09-28T01:50:19.248Z,0.60
2022-09-28T01:55:29.374Z,0.63
2022-09-28T02:00:39.382Z,0.63
2022-09-28T02:05:49.593Z,0.67
2022-09-28T02:10:56.936Z,1.17
2022-09-28T02:16:05.554Z,1.93
2022-09-28T02:21:13.588Z,1.17
2022-09-28T02:26:19.476Z,0.83
2022-09-28T02:31:26.456Z,1.07
2022-09-28T02:36:31.407Z,1.03
2022-09-28T02:41:52.616Z,1.27
2022-09-28T02:47:01.461Z,1.10
2022-09-28T02:52:24.516Z,0.83
2022-09-28T02:57:38.363Z,1.90
2022-09-28T03:02:55.799Z,1.40
2022-09-28T03:08:00.875Z,3.77
2022-09-28T03:13:05.319Z,3.43
2022-09-28T03:18:09.504Z,1.83
2022-09-28T03:23:24.401Z,3.33
2022-09-28T03:28:28.196Z,18.50
2022-09-28T03:33:32.187Z,6.70
2022-09-28T03:38:34.883Z,7.37
2022-09-28T03:43:37.536Z,4.87
2022-09-28T03:48:41.546Z,5.13
2022-09-28T03:53:44.195Z,6.37
2022-09-28T03:58:46.937Z,10.47
2022-09-28T04:03:55.246Z,7.43
2022-09-28T04:08:58.083Z,7.40
2022-09-28T04:14:00.912Z,4.57
2022-09-28T04:19:05.029Z,6.20
2022-09-28T04:24:07.880Z,8.30
2022-09-28T04:29:16.986Z,8.67
2022-09-28T04:34:23.356Z,11.57
2022-09-28T04:39:26.012Z,11.93
2022-09-28T04:44:28.740Z,12.57
2022-09-28T04:49:35.341Z,13.30
2022-09-28T04:54:38.035Z,11.77
2022-09-28T04:59:40.689Z,11.90
2022-09-28T05:04:44.681Z,9.83
2022-09-28T05:09:47.338Z,8.83
2022-09-28T05:14:49.978Z,11.30
2022-09-28T05:19:53.918Z,9.57
2022-09-28T05:24:58.214Z,10.77
2022-09-28T05:30:00.900Z,10.07
2022-09-28T05:35:06.273Z,11.50
2022-09-28T05:40:10.010Z,15.37
2022-09-28T05:45:12.698Z,14.67
2022-09-28T05:50:16.930Z,14.33
2022-09-28T05:55:19.546Z,15.67
2022-09-28T06:00:23.131Z,19.37
2022-09-28T06:05:27.266Z,16.80
2022-09-28T06:10:29.934Z,16.20
2022-09-28T06:15:34.603Z,14.57
2022-09-28T06:20:41.002Z,11.90
2022-09-28T06:25:43.652Z,11.70
2022-09-28T06:30:48.164Z,11.53
2022-09-28T06:35:52.179Z,12.27
2022-09-28T06:40:54.875Z,11.40
2022-09-28T06:45:57.729Z,11.43
2022-09-28T06:51:02.260Z,10.57
2022-09-28T06:56:06.900Z,7.67
2022-09-28T07:01:11.984Z,7.90
2022-09-28T07:06:16.119Z,8.20
2022-09-28T07:11:20.359Z,6.13
2022-09-28T07:16:27.229Z,7.73
2022-09-28T07:21:35.913Z,6.73
2022-09-28T07:26:38.613Z,10.30
2022-09-28T07:31:41.406Z,9.17
2022-09-28T07:36:45.455Z,5.83
2022-09-28T07:41:48.822Z,6.57
2022-09-28T07:46:51.528Z,7.97
2022-09-28T07:51:56.427Z,9.03
2022-09-28T07:56:59.111Z,8.53
2022-09-28T08:02:01.847Z,7.80
2022-09-28T08:07:10.348Z,10.67
2022-09-28T08:12:13.883Z,6.83
2022-09-28T08:17:16.631Z,7.27
2022-09-28T08:22:21.096Z,9.50
2022-09-28T08:27:23.731Z,7.93
2022-09-28T08:32:26.375Z,5.83
2022-09-28T08:37:30.344Z,14.33
2022-09-28T08:42:36.544Z,21.20
2022-09-28T08:48:06.429Z,12.20
2022-09-28T08:53:24.811Z,9.80
2022-09-28T08:58:33.594Z,7.13
2022-09-28T09:03:39.673Z,11.83
2022-09-28T09:08:57.240Z,4.07
2022-09-28T09:14:36.530Z,4.87
2022-09-28T09:19:49.405Z,3.93
2022-09-28T09:25:00.369Z,6.23
2022-09-28T09:30:07.201Z,2.70
2022-09-28T09:36:01.186Z,4.63
2022-09-28T09:41:18.374Z,2.57
2022-09-28T09:46:30.556Z,1.80
2022-09-28T09:51:42.600Z,3.53
2022-09-28T09:56:53.232Z,1.40
2022-09-28T10:01:56.941Z,4.93
2022-09-28T10:07:04.538Z,3.90
2022-09-28T10:12:15.131Z,3.27
2022-09-28T10:17:20.124Z,3.67
2022-09-28T10:22:25.950Z,3.23
2022-09-28T10:27:34.690Z,3.50
2022-09-28T10:32:39.368Z,1.57
2022-09-28T10:37:52.199Z,2.80
2022-09-28T10:43:06.757Z,1.57
2022-09-28T10:48:18.752Z,1.70
2022-09-28T10:53:21.964Z,1.10
2022-09-28T10:58:28.851Z,2.20
2022-09-28T11:03:32.546Z,1.80
2022-09-28T11:08:39.504Z,1.93
2022-09-28T11:13:46.320Z,1.43
2022-09-28T11:18:49.460Z,2.00
2022-09-28T11:24:01.854Z,2.93
2022-09-28T11:29:07.439Z,2.80
2022-09-28T11:34:17.284Z,4.03
2022-09-28T11:39:28.101Z,5.60
2022-09-28T11:44:41.261Z,3.47
2022-09-28T11:49:47.620Z,1.63
2022-09-28T11:54:55.852Z,4.70
2022-09-28T12:00:03.675Z,3.22
2022-09-28T12:05:18.421Z,2.20
2022-09-28T12:10:36.830Z,2.05
2022-09-28T12:16:16.831Z,2.83
2022-09-28T12:21:22.646Z,4.68
2022-09-28T12:26:37.230Z,2.92
2022-09-28T12:31:53.566Z,0.90
2022-09-28T12:37:16.133Z,0.90
2022-09-28T12:42:31.571Z,1.52
2022-09-28T12:47:57.700Z,1.58
2022-09-28T12:53:19.341Z,1.27
2022-09-28T12:58:40.686Z,0.82
2022-09-28T13:04:00.151Z,1.50
2022-09-28T13:09:21.577Z,0.85
2022-09-28T13:14:49.039Z,1.95
2022-09-28T13:19:59.265Z,1.00
2022-09-28T13:25:06.645Z,0.93
2022-09-28T13:30:14.211Z,1.08
2022-09-28T13:35:20.296Z,0.73
2022-09-28T13:41:09.846Z,0.60
2022-09-28T13:46:22.834Z,0.85
2022-09-28T13:51:34.250Z,0.40
2022-09-28T13:56:41.851Z,1.02
2022-09-28T14:01:53.051Z,1.27
2022-09-28T14:07:09.734Z,0.77
2022-09-28T14:12:43.868Z,0.93
2022-09-28T14:17:58.698Z,2.13
2022-09-28T14:23:29.155Z,1.30
2022-09-28T14:28:43.163Z,1.50
2022-09-28T14:33:56.788Z,2.00
2022-09-28T14:39:18.624Z,2.77
2022-09-28T14:44:22.073Z,2.37
2022-09-28T14:49:44.790Z,2.10
2022-09-28T14:54:54.202Z,1.15
2022-09-28T14:59:59.892Z,0.85
2022-09-28T15:05:14.784Z,0.85
2022-09-28T15:10:31.183Z,3.08
2022-09-28T15:15:36.464Z,0.73
2022-09-28T15:20:41.564Z,1.42
2022-09-28T15:25:53.549Z,2.58
2022-09-28T15:31:01.302Z,0.80
2022-09-28T15:36:07.582Z,0.50
2022-09-28T15:41:11.802Z,0.70
2022-09-28T15:46:18.341Z,0.85
2022-09-28T15:59:03.463Z,1.33
2022-09-28T16:15:58.139Z,2.30
2022-09-28T16:21:26.174Z,1.57
2022-09-28T16:26:33.450Z,3.33
2022-09-28T16:31:37.810Z,2.23
2022-09-28T16:36:45.732Z,1.20
2022-09-28T16:41:51.349Z,2.13
2022-09-28T16:46:58.372Z,2.20
2022-09-28T16:52:01.175Z,3.03
2022-09-28T16:57:05.742Z,1.97
2022-09-28T17:02:45.285Z,2.20
2022-09-28T17:07:45.345Z,2.33
2022-09-28T17:12:47.981Z,2.57
2022-09-28T17:17:52.024Z,2.00
2022-09-28T17:22:55.004Z,3.27
2022-09-28T17:27:59.162Z,3.67
2022-09-28T17:33:03.246Z,3.60
2022-09-28T17:38:05.908Z,3.10
2022-09-28T17:43:08.816Z,2.90
2022-09-28T17:48:15.676Z,3.00
2022-09-28T17:53:18.566Z,3.23
2022-09-28T17:58:22.966Z,3.67
2022-09-28T18:03:26.963Z,5.07
2022-09-28T18:08:29.820Z,7.50
2022-09-28T18:13:32.674Z,5.20
2022-09-28T18:18:39.718Z,8.10
2022-09-28T18:23:42.677Z,6.13
2022-09-28T18:28:45.476Z,5.73
2022-09-28T18:33:49.727Z,10.00
2022-09-28T18:38:53.092Z,12.67
2022-09-28T18:44:00.531Z,33.63
2022-09-28T18:49:05.527Z,17.33
2022-09-28T18:54:12.316Z,16.30
2022-09-28T18:59:18.548Z,19.73
2022-09-28T19:04:23.812Z,15.30
2022-09-28T19:09:29.140Z,23.40
2022-09-28T19:14:32.165Z,13.00
2022-09-28T19:19:39.325Z,13.47
2022-09-28T19:24:42.193Z,12.70
2022-09-28T19:29:45.000Z,12.50
2022-09-28T19:34:49.601Z,14.33
2022-09-28T19:39:52.400Z,13.17
2022-09-28T19:44:55.110Z,10.80
2022-09-28T19:49:59.215Z,17.97
2022-09-28T19:55:02.026Z,18.13
2022-09-28T20:00:05.640Z,14.20
2022-09-28T20:05:10.119Z,15.83
2022-09-28T20:10:13.190Z,19.13
2022-09-28T20:15:16.548Z,15.70
2022-09-28T20:20:20.629Z,20.27
2022-09-28T20:25:23.364Z,18.43
2022-09-28T20:30:26.097Z,29.57
2022-09-28T20:35:32.973Z,107.63
2022-09-28T20:40:36.470Z,56.63
2022-09-28T20:45:39.301Z,13.97
2022-09-28T20:50:43.594Z,16.17
2022-09-28T20:55:46.437Z,39.60
2022-09-28T21:00:49.187Z,26.93
2022-09-28T21:05:53.291Z,21.10
2022-09-28T21:10:56.003Z,50.33
2022-09-28T21:16:02.799Z,20.60
2022-09-28T21:21:08.828Z,23.87
2022-09-28T21:26:14.193Z,18.13
2022-09-28T21:31:17.017Z,17.57
2022-09-28T21:36:21.095Z,11.37
2022-09-28T21:41:24.514Z,9.83
2022-09-28T21:46:33.376Z,8.63
2022-09-28T21:51:38.071Z,10.97
2022-09-28T21:56:40.810Z,11.33
2022-09-28T22:01:44.180Z,9.67
2022-09-28T22:06:48.308Z,9.70
2022-09-28T22:11:51.271Z,11.53
2022-09-28T22:16:54.019Z,13.50
2022-09-28T22:21:58.130Z,12.00
2022-09-28T22:27:01.027Z,9.20
2022-09-28T22:32:03.835Z,12.23
2022-09-28T22:37:07.954Z,10.20
2022-09-28T22:42:10.691Z,9.27
2022-09-28T22:47:13.674Z,7.83
2022-09-28T22:52:18.092Z,9.40
2022-09-28T22:57:20.994Z,8.33
2022-09-28T23:02:23.844Z,7.23
2022-09-28T23:07:29.143Z,7.30
2022-09-28T23:12:33.279Z,10.07
2022-09-28T23:17:36.287Z,9.00
2022-09-28T23:22:40.464Z,7.37
2022-09-28T23:27:46.317Z,7.57
2022-09-28T23:32:49.608Z,9.83
2022-09-28T23:37:53.682Z,7.00
2022-09-28T23:42:56.445Z,6.50
2022-09-28T23:47:59.209Z,6.57
2022-09-28T23:53:03.322Z,7.17
2022-09-28T23:58:06.210Z,5.27
